createdAt,value
2022-10-06T00:00:50.298Z,991.398
2022-10-06T00:02:50.440Z,991.393
2022-10-06T00:04:50.258Z,991.426
2022-10-06T00:06:50.692Z,991.473
2022-10-06T00:08:50.745Z,991.466
2022-10-06T00:10:50.689Z,991.495
2022-10-06T00:12:50.654Z,991.480
2022-10-06T00:14:50.673Z,991.530
2022-10-06T00:16:50.040Z,991.509
2022-10-06T00:18:50.058Z,991.501
2022-10-06T00:20:49.950Z,991.548
2022-10-06T00:22:50.198Z,991.572
2022-10-06T00:24:50.207Z,991.585
2022-10-06T00:26:50.471Z,991.584
2022-10-06T00:28:50.892Z,991.561
2022-10-06T00:30:50.085Z,991.567
2022-10-06T00:32:50.412Z,991.602
2022-10-06T00:34:50.181Z,991.595
2022-10-06T00:36:50.416Z,991.629
2022-10-06T00:38:50.392Z,991.579
2022-10-06T00:40:50.569Z,991.636
2022-10-06T00:42:50.370Z,991.636
2022-10-06T00:44:50.664Z,991.673
2022-10-06T00:46:49.993Z,991.645
2022-10-06T00:48:50.010Z,991.686
2022-10-06T00:50:50.031Z,991.720
2022-10-06T00:52:50.034Z,991.724
2022-10-06T00:54:50.002Z,991.808
2022-10-06T00:56:50.191Z,991.818
2022-10-06T00:58:50.280Z,991.849
2022-10-06T01:00:50.318Z,991.808
2022-10-06T01:02:50.589Z,991.766
2022-10-06T01:04:50.065Z,991.751
2022-10-06T01:06:50.560Z,991.768
2022-10-06T01:08:50.385Z,991.766
2022-10-06T01:10:50.354Z,991.803
2022-10-06T01:12:50.314Z,991.787
2022-10-06T01:14:50.267Z,991.800
2022-10-06T01:16:50.605Z,991.807
2022-10-06T01:18:50.449Z,991.813
2022-10-06T01:20:50.451Z,991.836
2022-10-06T01:22:50.458Z,991.807
2022-10-06T01:24:50.568Z,991.799
2022-10-06T01:26:49.992Z,991.829
2022-10-06T01:28:50.928Z,991.885
2022-10-06T01:30:50.038Z,991.894
2022-10-06T01:32:50.187Z,991.930
2022-10-06T01:34:50.658Z,991.963
2022-10-06T01:36:49.810Z,991.981
2022-10-06T01:38:50.697Z,992.005
2022-10-06T01:40:50.626Z,992.016
2022-10-06T01:42:49.914Z,992.037
2022-10-06T01:44:50.753Z,992.028
2022-10-06T01:46:50.349Z,992.029
2022-10-06T01:48:50.191Z,992.029
2022-10-06T01:50:50.273Z,992.041
2022-10-06T01:52:50.127Z,992.028
2022-10-06T01:54:50.068Z,992.028
2022-10-06T01:56:50.428Z,992.035
2022-10-06T01:58:50.366Z,992.096
2022-10-06T02:00:50.358Z,992.061
2022-10-06T02:02:50.315Z,992.092
2022-10-06T02:04:49.842Z,992.084
2022-10-06T02:06:49.936Z,992.123
2022-10-06T02:08:50.435Z,992.133
2022-10-06T02:10:50.242Z,992.138
2022-10-06T02:12:50.299Z,992.144
2022-10-06T02:14:50.254Z,992.143
2022-10-06T02:16:50.735Z,992.167
2022-10-06T02:18:50.530Z,992.118
2022-10-06T02:20:50.385Z,992.119
2022-10-06T02:22:50.354Z,992.137
2022-10-06T02:24:50.215Z,992.131
2022-10-06T02:26:50.617Z,992.168
2022-10-06T02:28:50.941Z,992.147
2022-10-06T02:30:50.167Z,992.147
2022-10-06T02:32:50.217Z,992.160
2022-10-06T02:34:50.089Z,992.147
2022-10-06T02:36:50.372Z,992.144
2022-10-06T02:38:50.238Z,992.143
2022-10-06T02:40:50.517Z,992.115
2022-10-06T02:42:50.390Z,992.114
2022-10-06T02:44:50.457Z,992.114
2022-10-06T02:46:50.860Z,992.145
2022-10-06T02:48:50.294Z,992.190
2022-10-06T02:50:50.083Z,992.191
2022-10-06T02:52:50.369Z,992.224
2022-10-06T02:54:50.263Z,992.251
2022-10-06T02:56:50.634Z,992.289
2022-10-06T02:58:50.467Z,992.329
2022-10-06T03:00:50.278Z,992.339
2022-10-06T03:02:50.251Z,992.374
2022-10-06T03:04:50.740Z,992.340
2022-10-06T03:06:50.043Z,992.434
2022-10-06T03:08:49.970Z,992.424
2022-10-06T03:10:50.134Z,992.459
2022-10-06T03:12:50.075Z,992.525
2022-10-06T03:14:49.905Z,992.634
2022-10-06T03:16:50.286Z,992.647
2022-10-06T03:18:50.467Z,992.680
2022-10-06T03:20:50.284Z,992.680
2022-10-06T03:22:50.203Z,992.820
2022-10-06T03:24:50.005Z,992.835
2022-10-06T03:26:50.425Z,992.920
2022-10-06T03:28:50.508Z,992.948
2022-10-06T03:30:50.352Z,993.007
2022-10-06T03:32:50.277Z,993.071
2022-10-06T03:34:51.078Z,993.070
2022-10-06T03:36:50.103Z,993.131
2022-10-06T03:38:50.028Z,993.169
2022-10-06T03:40:49.924Z,993.204
2022-10-06T03:42:49.894Z,993.216
2022-10-06T03:44:49.957Z,993.250
2022-10-06T03:46:50.506Z,993.258
2022-10-06T03:48:50.636Z,993.222
2022-10-06T03:50:50.476Z,993.277
2022-10-06T03:52:50.364Z,993.261
2022-10-06T03:54:50.625Z,993.258
2022-10-06T03:56:50.188Z,993.296
2022-10-06T03:58:50.126Z,993.327
2022-10-06T04:00:50.176Z,993.338
2022-10-06T04:02:50.602Z,993.362
2022-10-06T04:04:50.248Z,993.382
2022-10-06T04:06:50.567Z,993.368
2022-10-06T04:08:50.387Z,993.383
2022-10-06T04:10:50.571Z,993.379
2022-10-06T04:12:50.485Z,993.361
2022-10-06T04:14:50.535Z,993.324
2022-10-06T04:16:49.906Z,993.368
2022-10-06T04:18:49.931Z,993.412
2022-10-06T04:20:49.871Z,993.450
2022-10-06T04:22:49.900Z,993.435
2022-10-06T04:24:50.721Z,993.507
2022-10-06T04:26:50.109Z,993.583
2022-10-06T04:28:50.367Z,993.643
2022-10-06T04:30:50.499Z,993.646
2022-10-06T04:32:50.324Z,993.690
2022-10-06T04:34:50.757Z,993.700
2022-10-06T04:36:50.083Z,993.681
2022-10-06T04:38:50.082Z,993.681
2022-10-06T04:40:50.085Z,993.711
2022-10-06T04:42:50.029Z,993.723
2022-10-06T04:44:50.019Z,993.761
2022-10-06T04:46:50.709Z,993.788
2022-10-06T04:48:50.044Z,993.795
2022-10-06T04:50:49.886Z,993.817
2022-10-06T04:52:50.033Z,993.830
2022-10-06T04:54:49.968Z,993.826
2022-10-06T04:56:50.369Z,993.850
2022-10-06T04:58:50.151Z,993.894
2022-10-06T05:00:50.459Z,993.965
2022-10-06T05:02:50.514Z,993.956
2022-10-06T05:04:50.125Z,994.015
2022-10-06T05:06:50.519Z,994.050
2022-10-06T05:08:50.528Z,994.091
2022-10-06T05:10:50.588Z,994.095
2022-10-06T05:12:50.590Z,994.110
2022-10-06T05:14:50.545Z,994.129
2022-10-06T05:16:50.174Z,994.156
2022-10-06T05:18:50.279Z,994.166
2022-10-06T05:20:50.321Z,994.155
2022-10-06T05:22:50.535Z,994.211
2022-10-06T05:24:50.320Z,994.208
2022-10-06T05:26:50.683Z,994.235
2022-10-06T05:28:50.951Z,994.227
2022-10-06T05:30:50.628Z,994.316
2022-10-06T05:32:50.638Z,994.322
2022-10-06T05:34:50.282Z,994.354
2022-10-06T05:36:50.569Z,994.419
2022-10-06T05:38:50.711Z,994.433
2022-10-06T05:40:50.093Z,994.482
2022-10-06T05:42:49.976Z,994.495
2022-10-06T05:44:49.963Z,994.501
2022-10-06T05:46:50.250Z,994.503
2022-10-06T05:48:50.378Z,994.537
2022-10-06T05:50:50.643Z,994.576
2022-10-06T05:52:50.725Z,994.591
2022-10-06T05:54:50.845Z,994.599
2022-10-06T05:56:50.298Z,994.638
2022-10-06T05:58:50.231Z,994.648
2022-10-06T06:00:50.401Z,994.736
2022-10-06T06:02:50.673Z,994.781
2022-10-06T06:04:50.373Z,994.776
2022-10-06T06:06:49.979Z,994.795
2022-10-06T06:08:49.841Z,994.861
2022-10-06T06:10:49.863Z,994.918
2022-10-06T06:12:49.867Z,994.954
2022-10-06T06:14:50.197Z,994.981
2022-10-06T06:16:50.672Z,995.032
2022-10-06T06:18:49.821Z,995.074
2022-10-06T06:20:49.961Z,995.136
2022-10-06T06:22:49.993Z,995.137
2022-10-06T06:24:49.966Z,995.158
2022-10-06T06:26:50.389Z,995.179
2022-10-06T06:28:50.581Z,995.269
2022-10-06T06:30:50.464Z,995.291
2022-10-06T06:32:49.846Z,995.386
2022-10-06T06:34:50.395Z,995.445
2022-10-06T06:36:49.862Z,995.478
2022-10-06T06:38:50.749Z,995.539
2022-10-06T06:40:50.761Z,995.558
2022-10-06T06:42:54.224Z,995.620
2022-10-06T06:44:50.019Z,995.655
2022-10-06T06:46:50.627Z,995.716
2022-10-06T06:48:49.817Z,995.767
2022-10-06T06:50:49.886Z,995.739
2022-10-06T06:52:49.920Z,995.758
2022-10-06T06:54:50.011Z,995.785
2022-10-06T06:56:50.404Z,995.800
2022-10-06T06:58:50.657Z,995.826
2022-10-06T07:00:50.576Z,995.902
2022-10-06T07:02:50.538Z,995.920
2022-10-06T07:04:49.905Z,995.971
2022-10-06T07:06:50.290Z,995.921
2022-10-06T07:08:50.417Z,995.947
2022-10-06T07:10:50.329Z,996.064
2022-10-06T07:12:50.305Z,996.061
2022-10-06T07:14:50.265Z,996.067
2022-10-06T07:16:50.303Z,996.045
2022-10-06T07:18:50.239Z,996.130
2022-10-06T07:20:50.388Z,996.179
2022-10-06T07:22:50.206Z,996.180
2022-10-06T07:24:50.242Z,996.296
2022-10-06T07:26:50.750Z,996.311
2022-10-06T07:28:50.663Z,996.382
2022-10-06T07:30:50.683Z,996.392
2022-10-06T07:32:50.720Z,996.450
2022-10-06T07:34:51.108Z,996.587
2022-10-06T07:36:50.432Z,996.565
2022-10-06T07:38:50.305Z,996.605
2022-10-06T07:41:19.933Z,996.678
2022-10-06T07:42:50.803Z,996.678
2022-10-06T07:44:49.910Z,996.626
2022-10-06T07:46:49.850Z,996.675
2022-10-06T07:48:49.866Z,996.692
2022-10-06T07:50:50.715Z,996.630
2022-10-06T07:52:49.909Z,996.734
2022-10-06T07:54:50.118Z,996.755
2022-10-06T07:56:50.694Z,996.805
2022-10-06T07:58:50.789Z,996.781
2022-10-06T08:00:49.942Z,996.819
2022-10-06T08:02:50.106Z,996.877
2022-10-06T08:04:49.936Z,996.893
2022-10-06T08:06:50.453Z,996.906
2022-10-06T08:08:53.799Z,996.943
2022-10-06T08:10:49.954Z,996.943
2022-10-06T08:12:50.803Z,997.016
2022-10-06T08:14:51.264Z,997.014
2022-10-06T08:16:50.008Z,997.054
2022-10-06T08:18:50.111Z,997.001
2022-10-06T08:20:50.388Z,997.062
2022-10-06T08:22:50.267Z,997.061
2022-10-06T08:25:08.772Z,997.069
2022-10-06T08:26:50.473Z,997.117
2022-10-06T08:28:50.537Z,997.165
2022-10-06T08:30:50.759Z,997.161
2022-10-06T08:32:49.839Z,997.218
2022-10-06T08:34:50.453Z,997.265
2022-10-06T08:37:19.663Z,997.356
2022-10-06T08:38:50.855Z,997.347
2022-10-06T08:40:49.894Z,997.360
2022-10-06T08:42:50.358Z,997.360
2022-10-06T08:44:50.488Z,997.395
2022-10-06T08:46:50.026Z,997.424
2022-10-06T08:48:50.245Z,997.444
2022-10-06T08:50:50.167Z,997.364
2022-10-06T08:52:50.320Z,997.412
2022-10-06T08:54:50.277Z,997.421
2022-10-06T08:56:50.543Z,997.421
2022-10-06T08:58:50.750Z,997.444
2022-10-06T09:00:50.674Z,997.471
2022-10-06T09:02:50.636Z,997.492
2022-10-06T09:04:50.328Z,997.520
2022-10-06T09:06:49.927Z,997.557
2022-10-06T09:08:49.839Z,997.568
2022-10-06T09:10:50.058Z,997.568
2022-10-06T09:12:50.121Z,997.593
2022-10-06T09:14:50.236Z,997.605
2022-10-06T09:16:49.841Z,997.605
2022-10-06T09:19:09.682Z,997.647
2022-10-06T09:20:50.436Z,997.652
2022-10-06T09:22:50.458Z,997.696
2022-10-06T09:24:50.347Z,997.648
2022-10-06T09:26:50.717Z,997.686
2022-10-06T09:28:49.919Z,997.682
2022-10-06T09:30:55.800Z,997.850
2022-10-06T09:32:50.148Z,997.776
2022-10-06T09:34:49.896Z,997.761
2022-10-06T09:36:50.356Z,997.812
2022-10-06T09:38:50.372Z,997.751
2022-10-06T09:40:50.228Z,997.731
2022-10-06T09:42:50.340Z,997.747
2022-10-06T09:44:50.278Z,997.763
2022-10-06T09:46:49.849Z,997.752
2022-10-06T09:48:49.862Z,997.776
2022-10-06T09:50:50.009Z,997.744
2022-10-06T09:52:49.927Z,997.745
2022-10-06T09:54:49.846Z,997.732
2022-10-06T09:56:50.097Z,997.780
2022-10-06T09:58:49.841Z,997.793
2022-10-06T10:00:50.056Z,997.794
2022-10-06T10:02:50.331Z,997.857
2022-10-06T10:04:51.828Z,997.905
2022-10-06T10:06:50.106Z,997.933
2022-10-06T10:08:50.220Z,997.906
2022-10-06T10:10:50.041Z,997.870
2022-10-06T10:12:50.274Z,997.928
2022-10-06T10:14:50.071Z,997.917
2022-10-06T10:16:53.678Z,997.881
2022-10-06T10:18:50.590Z,997.889
2022-10-06T10:20:50.636Z,997.858
2022-10-06T10:22:50.702Z,997.953
2022-10-06T10:24:50.664Z,997.902
2022-10-06T10:26:49.986Z,997.939
2022-10-06T10:28:49.945Z,997.886
2022-10-06T10:30:49.893Z,997.878
2022-10-06T10:32:50.714Z,997.867
2022-10-06T10:34:50.206Z,997.867
2022-10-06T10:36:50.517Z,997.913
2022-10-06T10:38:50.704Z,997.976
2022-10-06T10:40:50.747Z,997.904
2022-10-06T10:42:50.769Z,997.949
2022-10-06T10:44:50.674Z,997.992
2022-10-06T10:46:50.192Z,997.988
2022-10-06T10:48:50.147Z,997.925
2022-10-06T10:50:50.201Z,997.870
2022-10-06T10:52:50.146Z,997.840
2022-10-06T10:54:50.178Z,997.878
2022-10-06T10:56:50.657Z,997.916
2022-10-06T10:58:50.078Z,997.892
2022-10-06T11:00:50.115Z,997.921
2022-10-06T11:02:50.484Z,997.901
2022-10-06T11:04:50.026Z,997.911
2022-10-06T11:06:50.465Z,997.967
2022-10-06T11:08:50.419Z,997.933
2022-10-06T11:10:50.342Z,997.887
2022-10-06T11:12:50.531Z,997.910
2022-10-06T11:14:50.661Z,997.907
2022-10-06T11:16:50.006Z,997.934
2022-10-06T11:18:49.942Z,997.899
2022-10-06T11:20:50.104Z,997.918
2022-10-06T11:22:50.256Z,997.912
2022-10-06T11:24:50.427Z,997.962
2022-10-06T11:26:49.855Z,998.010
2022-10-06T11:28:49.889Z,998.048
2022-10-06T11:30:49.868Z,998.043
2022-10-06T11:32:49.804Z,998.002
2022-10-06T11:34:50.284Z,997.905
2022-10-06T11:36:50.655Z,997.922
2022-10-06T11:38:50.639Z,997.926
2022-10-06T11:40:49.857Z,997.868
2022-10-06T11:42:49.801Z,997.882
2022-10-06T11:44:50.790Z,997.874
2022-10-06T11:46:50.010Z,997.871
2022-10-06T11:48:49.850Z,997.935
2022-10-06T11:50:49.884Z,997.877
2022-10-06T11:52:50.746Z,997.805
2022-10-06T11:54:49.922Z,997.798
2022-10-06T11:56:50.183Z,997.820
2022-10-06T11:58:50.319Z,997.757
2022-10-06T12:00:50.300Z,997.716
2022-10-06T12:02:50.899Z,997.643
2022-10-06T12:04:49.813Z,997.687
2022-10-06T12:06:50.260Z,997.637
2022-10-06T12:08:50.518Z,997.637
2022-10-06T12:10:50.442Z,997.679
2022-10-06T12:13:09.284Z,997.588
2022-10-06T12:17:14.138Z,997.572
2022-10-06T12:18:50.049Z,997.565
2022-10-06T12:20:50.140Z,997.575
2022-10-06T12:22:50.087Z,997.519
2022-10-06T12:24:50.170Z,997.564
2022-10-06T12:26:50.492Z,997.507
2022-10-06T12:28:50.627Z,997.559
2022-10-06T12:30:50.727Z,997.574
2022-10-06T12:32:50.068Z,997.482
2022-10-06T12:34:50.825Z,997.457
2022-10-06T12:36:50.297Z,997.457
2022-10-06T12:38:50.194Z,997.362
2022-10-06T12:40:50.222Z,997.362
2022-10-06T12:42:50.250Z,997.418
2022-10-06T12:44:50.503Z,997.374
2022-10-06T12:46:49.855Z,997.374
2022-10-06T12:48:50.591Z,997.382
2022-10-06T12:50:49.873Z,997.378
2022-10-06T12:52:50.774Z,997.390
2022-10-06T12:54:50.634Z,997.391
2022-10-06T12:56:49.888Z,997.378
2022-10-06T12:58:50.094Z,997.429
2022-10-06T13:00:50.071Z,997.400
2022-10-06T13:02:50.313Z,997.340
2022-10-06T13:04:49.921Z,997.461
2022-10-06T13:06:50.261Z,997.441
2022-10-06T13:08:50.337Z,997.402
2022-10-06T13:10:50.490Z,997.413
2022-10-06T13:12:50.535Z,997.468
2022-10-06T13:14:50.499Z,997.430
2022-10-06T13:16:50.329Z,997.385
2022-10-06T13:18:50.433Z,997.390
2022-10-06T13:20:50.273Z,997.396
2022-10-06T13:22:50.572Z,997.394
2022-10-06T13:24:50.396Z,997.361
2022-10-06T13:26:49.901Z,997.396
2022-10-06T13:28:49.844Z,997.353
2022-10-06T13:30:50.309Z,997.312
2022-10-06T13:32:50.731Z,997.336
2022-10-06T13:34:50.324Z,997.342
2022-10-06T13:36:50.675Z,997.304
2022-10-06T13:38:50.598Z,997.303
2022-10-06T13:40:50.737Z,997.310
2022-10-06T13:42:50.529Z,997.343
2022-10-06T13:44:50.536Z,997.316
2022-10-06T13:46:50.715Z,997.316
2022-10-06T13:48:50.710Z,997.332
2022-10-06T13:50:50.873Z,997.289
2022-10-06T13:52:50.373Z,997.291
2022-10-06T13:54:50.190Z,997.263
2022-10-06T13:56:50.512Z,997.272
2022-10-06T13:58:50.398Z,997.308
2022-10-06T14:00:50.430Z,997.345
2022-10-06T14:02:50.560Z,997.323
2022-10-06T14:04:50.203Z,997.336
2022-10-06T14:06:50.379Z,997.363
2022-10-06T14:08:50.345Z,997.311
2022-10-06T14:10:50.630Z,997.339
2022-10-06T14:12:50.500Z,997.326
2022-10-06T14:14:50.524Z,997.358
2022-10-06T14:16:49.866Z,997.296
2022-10-06T14:18:50.258Z,997.358
2022-10-06T14:20:50.299Z,997.349
2022-10-06T14:22:50.344Z,997.307
2022-10-06T14:24:50.317Z,997.316
2022-10-06T14:26:50.742Z,997.308
2022-10-06T14:28:50.498Z,997.280
2022-10-06T14:30:50.732Z,997.280
2022-10-06T14:32:50.611Z,997.277
2022-10-06T14:34:49.931Z,997.271
2022-10-06T14:36:50.520Z,997.291
2022-10-06T14:38:50.252Z,997.300
2022-10-06T14:40:50.236Z,997.293
2022-10-06T14:42:50.206Z,997.269
2022-10-06T14:44:50.055Z,997.287
2022-10-06T14:46:50.395Z,997.260
2022-10-06T14:48:50.810Z,997.257
2022-10-06T14:50:49.855Z,997.208
2022-10-06T14:52:50.745Z,997.248
2022-10-06T14:54:49.808Z,997.244
2022-10-06T14:56:50.169Z,997.295
2022-10-06T14:58:50.140Z,997.256
2022-10-06T15:00:50.015Z,997.256
2022-10-06T15:02:50.518Z,997.243
2022-10-06T15:04:50.229Z,997.275
2022-10-06T15:06:50.365Z,997.230
2022-10-06T15:08:50.421Z,997.159
2022-10-06T15:10:50.259Z,997.212
2022-10-06T15:12:50.186Z,997.257
2022-10-06T15:14:49.979Z,997.228
2022-10-06T15:16:50.206Z,997.220
2022-10-06T15:18:50.064Z,997.220
2022-10-06T15:20:50.261Z,997.206
2022-10-06T15:22:50.282Z,997.154
2022-10-06T15:24:50.358Z,997.162
2022-10-06T15:26:50.603Z,997.204
2022-10-06T15:28:50.618Z,997.194
2022-10-06T15:30:50.723Z,997.205
2022-10-06T15:32:50.008Z,997.242
2022-10-06T15:34:50.511Z,997.174
2022-10-06T15:36:49.857Z,997.191
2022-10-06T15:38:49.950Z,997.201
2022-10-06T15:40:50.035Z,997.182
2022-10-06T15:42:50.747Z,997.182
2022-10-06T15:44:49.809Z,997.163
2022-10-06T15:46:50.408Z,997.210
2022-10-06T15:48:50.706Z,997.213
2022-10-06T15:50:50.531Z,997.229
2022-10-06T15:52:50.446Z,997.247
2022-10-06T15:54:50.466Z,997.174
2022-10-06T15:56:50.559Z,997.211
2022-10-06T15:58:50.347Z,997.193
2022-10-06T16:00:50.178Z,997.217
2022-10-06T16:02:50.510Z,997.266
2022-10-06T16:04:50.019Z,997.260
2022-10-06T16:06:50.317Z,997.237
2022-10-06T16:08:50.037Z,997.253
2022-10-06T16:10:50.079Z,997.241
2022-10-06T16:12:50.025Z,997.241
2022-10-06T16:14:50.133Z,997.274
2022-10-06T16:16:50.438Z,997.294
2022-10-06T16:18:50.494Z,997.322
2022-10-06T16:20:50.614Z,997.322
2022-10-06T16:22:50.161Z,997.291
2022-10-06T16:24:50.264Z,997.289
2022-10-06T16:26:50.614Z,997.297
2022-10-06T16:28:50.567Z,997.312
2022-10-06T16:30:50.486Z,997.357
2022-10-06T16:32:50.570Z,997.347
2022-10-06T16:34:50.131Z,997.340
2022-10-06T16:36:50.426Z,997.346
2022-10-06T16:38:50.448Z,997.279
2022-10-06T16:40:50.337Z,997.290
2022-10-06T16:42:50.320Z,997.239
2022-10-06T16:44:50.268Z,997.306
2022-10-06T16:46:51.133Z,997.320
2022-10-06T16:48:50.437Z,997.320
2022-10-06T16:50:50.599Z,997.291
2022-10-06T16:52:50.668Z,997.324
2022-10-06T16:54:50.712Z,997.311
2022-10-06T16:56:50.287Z,997.322
2022-10-06T16:58:50.228Z,997.340
2022-10-06T17:00:50.363Z,997.342
2022-10-06T17:02:50.414Z,997.377
2022-10-06T17:04:50.721Z,997.390
2022-10-06T17:06:50.140Z,997.374
2022-10-06T17:08:50.267Z,997.396
2022-10-06T17:10:50.248Z,997.394
2022-10-06T17:12:50.341Z,997.411
2022-10-06T17:14:50.632Z,997.483
2022-10-06T17:16:50.130Z,997.500
2022-10-06T17:18:50.251Z,997.521
2022-10-06T17:20:50.227Z,997.480
2022-10-06T17:22:50.489Z,997.480
2022-10-06T17:24:50.557Z,997.472
2022-10-06T17:26:49.999Z,997.519
2022-10-06T17:28:49.916Z,997.561
2022-10-06T17:30:50.041Z,997.535
2022-10-06T17:32:50.044Z,997.516
2022-10-06T17:34:50.803Z,997.513
2022-10-06T17:36:50.304Z,997.547
2022-10-06T17:38:50.264Z,997.538
2022-10-06T17:40:50.259Z,997.556
2022-10-06T17:42:50.290Z,997.585
2022-10-06T17:44:50.240Z,997.596
2022-10-06T17:46:50.589Z,997.566
2022-10-06T17:48:50.568Z,997.573
2022-10-06T17:50:50.622Z,997.620
2022-10-06T17:52:50.530Z,997.607
2022-10-06T17:54:50.346Z,997.628
2022-10-06T17:56:50.727Z,997.625
2022-10-06T17:58:50.598Z,997.631
2022-10-06T18:00:50.677Z,997.616
2022-10-06T18:02:51.021Z,997.638
2022-10-06T18:04:49.866Z,997.644
2022-10-06T18:06:50.299Z,997.625
2022-10-06T18:08:50.361Z,997.608
2022-10-06T18:10:50.332Z,997.605
2022-10-06T18:12:50.516Z,997.620
2022-10-06T18:14:50.408Z,997.648
2022-10-06T18:16:56.890Z,997.649
2022-10-06T18:18:50.359Z,997.642
2022-10-06T18:20:50.258Z,997.669
2022-10-06T18:22:50.327Z,997.656
2022-10-06T18:24:50.191Z,997.613
2022-10-06T18:26:50.508Z,997.628
2022-10-06T18:28:50.645Z,997.624
2022-10-06T18:30:50.631Z,997.612
2022-10-06T18:36:50.482Z,997.670
2022-10-06T18:38:50.546Z,997.694
2022-10-06T18:40:50.510Z,997.708
2022-10-06T18:42:50.392Z,997.660
2022-10-06T18:44:50.610Z,997.644
2022-10-06T18:46:49.921Z,997.627
2022-10-06T18:48:50.039Z,997.650
2022-10-06T18:50:50.208Z,997.688
2022-10-06T18:52:50.153Z,997.699
2022-10-06T18:54:50.156Z,997.696
2022-10-06T18:56:50.458Z,997.734
2022-10-06T18:58:50.302Z,997.734
2022-10-06T19:00:50.492Z,997.656
2022-10-06T19:02:50.541Z,997.665
2022-10-06T19:04:50.112Z,997.686
2022-10-06T19:06:50.549Z,997.718
2022-10-06T19:08:50.538Z,997.743
2022-10-06T19:10:50.684Z,997.803
2022-10-06T19:12:49.858Z,997.793
2022-10-06T19:14:49.831Z,997.778
2022-10-06T19:16:50.421Z,997.784
2022-10-06T19:18:50.473Z,997.820
2022-10-06T19:20:50.543Z,997.825
2022-10-06T19:22:50.615Z,997.872
2022-10-06T19:24:50.464Z,997.903
2022-10-06T19:26:50.732Z,997.894
2022-10-06T19:28:50.688Z,997.869
2022-10-06T19:30:50.813Z,997.846
2022-10-06T19:32:49.907Z,997.870
2022-10-06T19:34:50.133Z,997.864
2022-10-06T19:36:50.238Z,997.840
2022-10-06T19:38:50.291Z,997.818
2022-10-06T19:40:50.153Z,997.817
2022-10-06T19:42:50.198Z,997.795
2022-10-06T19:44:50.021Z,997.771
2022-10-06T19:46:50.235Z,997.782
2022-10-06T19:48:50.062Z,997.817
2022-10-06T19:50:49.967Z,997.873
2022-10-06T19:52:49.939Z,997.914
2022-10-06T19:54:49.870Z,997.910
2022-10-06T19:56:50.168Z,997.894
2022-10-06T19:58:49.989Z,997.900
2022-10-06T20:00:50.050Z,997.919
2022-10-06T20:02:49.904Z,997.916
2022-10-06T20:04:50.375Z,997.924
2022-10-06T20:06:50.675Z,997.926
2022-10-06T20:08:50.725Z,997.881
2022-10-06T20:10:50.660Z,997.861
2022-10-06T20:12:50.570Z,997.861
2022-10-06T20:14:50.416Z,997.898
2022-10-06T20:16:51.304Z,997.892
2022-10-06T20:18:50.356Z,997.946
2022-10-06T20:20:50.470Z,997.922
2022-10-06T20:22:50.352Z,997.929
2022-10-06T20:24:50.325Z,997.929
2022-10-06T20:26:50.617Z,997.903
2022-10-06T20:28:50.943Z,997.875
2022-10-06T20:30:50.398Z,997.876
2022-10-06T20:32:50.289Z,997.864
2022-10-06T20:34:50.707Z,997.894
2022-10-06T20:36:56.479Z,997.895
2022-10-06T20:38:50.446Z,997.888
2022-10-06T20:40:50.229Z,997.883
2022-10-06T20:42:50.229Z,997.889
2022-10-06T20:44:49.895Z,997.943
2022-10-06T20:46:50.335Z,997.981
2022-10-06T20:48:50.270Z,997.945
2022-10-06T20:50:50.397Z,997.923
2022-10-06T20:52:50.306Z,997.911
2022-10-06T20:54:50.303Z,997.886
2022-10-06T20:56:50.458Z,997.867
2022-10-06T20:58:50.575Z,997.815
2022-10-06T21:00:50.356Z,997.810
2022-10-06T21:02:50.519Z,997.807
2022-10-06T21:04:50.173Z,997.808
2022-10-06T21:06:50.392Z,997.787
2022-10-06T21:08:50.412Z,997.741
2022-10-06T21:10:50.338Z,997.713
2022-10-06T21:12:50.342Z,997.725
2022-10-06T21:14:50.177Z,997.743
2022-10-06T21:16:50.397Z,997.704
2022-10-06T21:18:50.234Z,997.776
2022-10-06T21:20:50.196Z,997.763
2022-10-06T21:22:49.939Z,997.737
2022-10-06T21:24:50.703Z,997.772
2022-10-06T21:26:50.104Z,997.731
2022-10-06T21:28:50.222Z,997.728
2022-10-06T21:30:50.100Z,997.746
2022-10-06T21:32:50.209Z,997.746
2022-10-06T21:34:50.386Z,997.705
2022-10-06T21:36:50.680Z,997.678
2022-10-06T21:38:50.561Z,997.697
2022-10-06T21:40:50.451Z,997.678
2022-10-06T21:42:50.086Z,997.675
2022-10-06T21:44:50.014Z,997.658
2022-10-06T21:46:50.384Z,997.642
2022-10-06T21:48:50.704Z,997.604
2022-10-06T21:50:50.459Z,997.597
2022-10-06T21:52:50.405Z,997.599
2022-10-06T21:54:50.275Z,997.629
2022-10-06T21:56:50.786Z,997.574
2022-10-06T21:58:50.683Z,997.586
2022-10-06T22:00:58.312Z,997.592
2022-10-06T22:02:50.299Z,997.528
2022-10-06T22:04:50.779Z,997.499
2022-10-06T22:06:50.406Z,997.516
2022-10-06T22:08:50.233Z,997.485
2022-10-06T22:10:50.027Z,997.503
2022-10-06T22:12:49.946Z,997.479
2022-10-06T22:14:49.790Z,997.443
2022-10-06T22:16:50.194Z,997.498
2022-10-06T22:18:50.184Z,997.455
2022-10-06T22:20:50.045Z,997.419
2022-10-06T22:22:49.929Z,997.426
2022-10-06T22:24:49.997Z,997.384
2022-10-06T22:26:50.375Z,997.373
2022-10-06T22:28:50.214Z,997.351
2022-10-06T22:30:50.301Z,997.336
2022-10-06T22:32:50.166Z,997.354
2022-10-06T22:34:50.461Z,997.339
2022-10-06T22:36:49.822Z,997.341
2022-10-06T22:38:50.688Z,997.341
2022-10-06T22:40:50.464Z,997.258
2022-10-06T22:42:50.300Z,997.276
2022-10-06T22:44:50.130Z,997.227
2022-10-06T22:46:50.733Z,997.261
2022-10-06T22:48:50.714Z,997.262
2022-10-06T22:50:50.569Z,997.220
2022-10-06T22:52:50.472Z,997.202
2022-10-06T22:54:50.456Z,997.202
2022-10-06T22:56:49.894Z,997.176
2022-10-06T22:58:49.819Z,997.135
2022-10-06T23:00:50.021Z,997.145
2022-10-06T23:02:50.167Z,997.142
2022-10-06T23:04:50.428Z,997.136
2022-10-06T23:06:50.714Z,997.127
2022-10-06T23:08:50.566Z,997.070
2022-10-06T23:10:50.515Z,997.064
2022-10-06T23:12:50.490Z,997.018
2022-10-06T23:14:50.328Z,996.989
2022-10-06T23:16:50.910Z,996.992
2022-10-06T23:18:50.118Z,996.968
2022-10-06T23:20:49.817Z,996.983
2022-10-06T23:22:49.851Z,996.945
2022-10-06T23:24:50.692Z,996.928
2022-10-06T23:26:49.850Z,996.902
2022-10-06T23:28:50.742Z,996.889
2022-10-06T23:30:50.765Z,996.884
2022-10-06T23:32:50.608Z,996.872
2022-10-06T23:34:50.063Z,996.855
2022-10-06T23:36:50.178Z,996.873
2022-10-06T23:38:50.246Z,996.894
2022-10-06T23:40:49.958Z,996.834
2022-10-06T23:42:50.085Z,996.793
2022-10-06T23:44:49.869Z,996.783
2022-10-06T23:46:50.189Z,996.735
2022-10-06T23:48:50.001Z,996.786
2022-10-06T23:50:49.903Z,996.807
2022-10-06T23:52:50.557Z,996.781
2022-10-06T23:54:50.650Z,996.814
2022-10-06T23:56:49.841Z,996.800
2022-10-06T23:58:50.038Z,996.810
